createdAt,value
2018-09-24T00:00:44.024Z,14.56
2018-09-24T00:01:44.495Z,14.66
2018-09-24T00:02:44.963Z,14.75
2018-09-24T00:03:45.433Z,14.81
2018-09-24T00:04:45.909Z,14.90
2018-09-24T00:05:46.378Z,14.99
2018-09-24T00:06:46.850Z,15.09
2018-09-24T00:07:47.321Z,15.16
2018-09-24T00:08:47.793Z,15.25
2018-09-24T00:09:48.267Z,15.36
2018-09-24T00:10:48.747Z,15.43
2018-09-24T00:11:49.216Z,15.53
2018-09-24T00:12:49.690Z,15.61
2018-09-24T00:13:50.156Z,15.69
2018-09-24T00:14:50.636Z,15.75
2018-09-24T00:15:51.104Z,15.82
2018-09-24T00:16:51.578Z,15.88
2018-09-24T00:17:52.050Z,15.92
2018-09-24T00:18:52.523Z,15.89
2018-09-24T00:19:52.998Z,15.87
2018-09-24T00:20:53.472Z,15.83
2018-09-24T00:21:53.943Z,15.77
2018-09-24T00:22:54.419Z,15.71
2018-09-24T00:23:54.890Z,15.63
2018-09-24T00:24:55.365Z,15.53
2018-09-24T00:25:55.839Z,15.44
2018-09-24T00:26:56.312Z,15.32
2018-09-24T00:27:56.789Z,15.18
2018-09-24T00:28:57.259Z,15.03
2018-09-24T00:29:57.732Z,14.87
2018-09-24T00:30:58.213Z,14.70
2018-09-24T00:31:58.683Z,14.53
2018-09-24T00:32:59.154Z,14.35
2018-09-24T00:33:59.627Z,14.18
2018-09-24T00:35:00.099Z,14.01
2018-09-24T00:36:00.571Z,13.84
2018-09-24T00:37:01.043Z,13.66
2018-09-24T00:38:01.516Z,13.48
2018-09-24T00:39:01.988Z,13.32
2018-09-24T00:40:02.457Z,13.18
2018-09-24T00:41:02.933Z,13.03
2018-09-24T00:42:03.403Z,12.90
2018-09-24T00:43:03.925Z,12.77
2018-09-24T00:44:04.345Z,12.68
2018-09-24T00:45:04.813Z,12.61
2018-09-24T00:46:05.285Z,12.56
2018-09-24T00:47:05.759Z,12.54
2018-09-24T00:48:06.225Z,12.52
2018-09-24T00:49:06.695Z,12.51
2018-09-24T00:50:07.165Z,12.52
2018-09-24T00:51:07.635Z,12.50
2018-09-24T00:52:08.109Z,12.51
2018-09-24T00:53:08.574Z,12.52
2018-09-24T00:54:09.044Z,12.57
2018-09-24T00:55:09.516Z,12.63
2018-09-24T00:56:09.984Z,12.70
2018-09-24T00:57:10.454Z,12.77
2018-09-24T00:58:10.928Z,12.84
2018-09-24T00:59:11.394Z,12.92
2018-09-24T01:00:11.864Z,12.99
2018-09-24T01:01:12.336Z,13.06
2018-09-24T01:02:12.803Z,13.14
2018-09-24T01:03:13.275Z,13.20
2018-09-24T01:04:13.744Z,13.26
2018-09-24T01:05:14.211Z,13.34
2018-09-24T01:06:14.686Z,13.41
2018-09-24T01:07:15.155Z,13.47
2018-09-24T01:08:15.623Z,13.51
2018-09-24T01:09:16.096Z,13.56
2018-09-24T01:10:16.564Z,13.62
2018-09-24T01:11:17.036Z,13.68
2018-09-24T01:12:17.507Z,13.74
2018-09-24T01:13:17.979Z,13.80
2018-09-24T01:14:18.446Z,13.87
2018-09-24T01:15:18.918Z,13.93
2018-09-24T01:16:19.389Z,14.00
2018-09-24T01:17:19.859Z,14.07
2018-09-24T01:18:20.332Z,14.15
2018-09-24T01:19:20.804Z,14.23
2018-09-24T01:20:21.274Z,14.29
2018-09-24T01:21:21.744Z,14.34
2018-09-24T01:22:22.219Z,14.39
2018-09-24T01:23:22.689Z,14.43
2018-09-24T01:24:23.160Z,14.46
2018-09-24T01:25:23.632Z,14.47
2018-09-24T01:26:24.110Z,14.51
2018-09-24T01:27:24.578Z,14.55
2018-09-24T01:28:25.050Z,14.58
2018-09-24T01:29:25.522Z,14.59
2018-09-24T01:30:25.996Z,14.63
2018-09-24T01:31:26.467Z,14.66
2018-09-24T01:32:26.939Z,14.71
2018-09-24T01:33:27.413Z,14.74
2018-09-24T01:34:27.885Z,14.76
2018-09-24T01:35:28.360Z,14.80
2018-09-24T01:36:28.835Z,14.82
2018-09-24T01:37:29.304Z,14.85
2018-09-24T01:38:29.777Z,14.90
2018-09-24T01:39:30.251Z,14.91
2018-09-24T01:40:30.725Z,14.92
2018-09-24T01:41:31.198Z,14.94
2018-09-24T01:42:31.674Z,14.92
2018-09-24T01:43:32.145Z,14.90
2018-09-24T01:44:32.618Z,14.85
2018-09-24T01:45:33.090Z,14.80
2018-09-24T01:46:33.565Z,14.70
2018-09-24T01:47:34.039Z,14.60
2018-09-24T01:48:34.510Z,14.50
2018-09-24T01:49:34.985Z,14.39
2018-09-24T01:50:35.458Z,14.29
2018-09-24T01:51:35.933Z,14.16
2018-09-24T01:52:36.403Z,14.03
2018-09-24T01:53:36.877Z,13.88
2018-09-24T01:54:37.350Z,13.74
2018-09-24T01:55:37.859Z,13.59
2018-09-24T01:56:38.293Z,13.45
2018-09-24T01:57:38.767Z,13.30
2018-09-24T01:58:39.244Z,13.16
2018-09-24T01:59:39.710Z,13.00
2018-09-24T02:00:40.182Z,12.86
2018-09-24T02:01:40.653Z,12.71
2018-09-24T02:02:41.125Z,12.58
2018-09-24T02:03:41.596Z,12.48
2018-09-24T02:04:42.066Z,12.38
2018-09-24T02:05:42.536Z,12.33
2018-09-24T02:06:43.007Z,12.29
2018-09-24T02:07:43.480Z,12.27
2018-09-24T02:08:43.948Z,12.27
2018-09-24T02:09:44.420Z,12.28
2018-09-24T02:10:44.886Z,12.29
2018-09-24T02:11:45.359Z,12.32
2018-09-24T02:12:45.829Z,12.34
2018-09-24T02:13:46.298Z,12.39
2018-09-24T02:14:46.767Z,12.44
2018-09-24T02:15:47.238Z,12.49
2018-09-24T02:16:47.706Z,12.53
2018-09-24T02:17:48.174Z,12.60
2018-09-24T02:18:48.644Z,12.67
2018-09-24T02:19:49.115Z,12.76
2018-09-24T02:20:49.585Z,12.84
2018-09-24T02:21:50.053Z,12.92
2018-09-24T02:22:50.531Z,13.00
2018-09-24T02:23:50.994Z,13.08
2018-09-24T02:24:51.462Z,13.15
2018-09-24T02:25:51.931Z,13.23
2018-09-24T02:26:52.402Z,13.28
2018-09-24T02:27:52.873Z,13.34
2018-09-24T02:28:53.344Z,13.40
2018-09-24T02:29:53.815Z,13.46
2018-09-24T02:30:54.285Z,13.54
2018-09-24T02:31:54.770Z,13.58
2018-09-24T02:32:55.224Z,13.64
2018-09-24T02:33:55.695Z,13.70
2018-09-24T02:34:56.166Z,13.75
2018-09-24T02:35:56.637Z,13.80
2018-09-24T02:36:57.109Z,13.85
2018-09-24T02:37:57.578Z,13.90
2018-09-24T02:38:58.052Z,13.97
2018-09-24T02:39:58.522Z,14.02
2018-09-24T02:40:58.992Z,14.04
2018-09-24T02:41:59.464Z,14.09
2018-09-24T02:42:59.935Z,14.14
2018-09-24T02:44:00.408Z,14.19
2018-09-24T02:45:00.879Z,14.22
2018-09-24T02:46:01.352Z,14.26
2018-09-24T02:47:01.822Z,14.31
2018-09-24T02:48:02.294Z,14.36
2018-09-24T02:49:02.765Z,14.40
2018-09-24T02:50:03.239Z,14.43
2018-09-24T02:51:03.711Z,14.48
2018-09-24T02:52:04.182Z,14.52
2018-09-24T02:53:04.653Z,14.54
2018-09-24T02:54:05.127Z,14.56
2018-09-24T02:55:05.601Z,14.60
2018-09-24T02:56:06.072Z,14.61
2018-09-24T02:57:06.546Z,14.65
2018-09-24T02:58:07.019Z,14.68
2018-09-24T02:59:07.490Z,14.68
2018-09-24T03:00:07.964Z,14.73
2018-09-24T03:01:08.436Z,14.75
2018-09-24T03:02:08.909Z,14.78
2018-09-24T03:03:09.381Z,14.80
2018-09-24T03:04:09.857Z,14.81
2018-09-24T03:05:10.328Z,14.77
2018-09-24T03:06:10.801Z,14.74
2018-09-24T03:07:11.278Z,14.70
2018-09-24T03:08:11.748Z,14.65
2018-09-24T03:09:12.220Z,14.58
2018-09-24T03:10:12.694Z,14.49
2018-09-24T03:11:13.170Z,14.38
2018-09-24T03:12:13.641Z,14.28
2018-09-24T03:13:14.121Z,14.14
2018-09-24T03:14:14.586Z,14.03
2018-09-24T03:15:15.060Z,13.90
2018-09-24T03:16:15.534Z,13.76
2018-09-24T03:17:16.004Z,13.60
2018-09-24T03:18:16.481Z,13.45
2018-09-24T03:19:16.950Z,13.30
2018-09-24T03:20:17.429Z,13.13
2018-09-24T03:21:17.893Z,12.99
2018-09-24T03:22:18.367Z,12.82
2018-09-24T03:23:18.838Z,12.64
2018-09-24T03:24:19.310Z,12.47
2018-09-24T03:25:19.779Z,12.31
2018-09-24T03:26:20.328Z,12.18
2018-09-24T03:27:20.721Z,12.05
2018-09-24T03:28:21.192Z,11.96
2018-09-24T03:29:21.661Z,11.90
2018-09-24T03:30:22.132Z,11.86
2018-09-24T03:31:22.603Z,11.82
2018-09-24T03:32:23.075Z,11.81
2018-09-24T03:33:23.544Z,11.81
2018-09-24T03:34:24.012Z,11.84
2018-09-24T03:35:24.484Z,11.85
2018-09-24T03:36:24.951Z,11.90
2018-09-24T03:37:25.420Z,11.95
2018-09-24T03:38:25.892Z,11.98
2018-09-24T03:39:26.361Z,12.04
2018-09-24T03:40:26.829Z,12.08
2018-09-24T03:41:27.299Z,12.14
2018-09-24T03:42:27.768Z,12.19
2018-09-24T03:43:28.236Z,12.24
2018-09-24T03:44:28.706Z,12.31
2018-09-24T03:45:29.176Z,12.39
2018-09-24T03:46:29.645Z,12.46
2018-09-24T03:47:30.114Z,12.54
2018-09-24T03:48:30.585Z,12.60
2018-09-24T03:49:31.053Z,12.66
2018-09-24T03:50:31.522Z,12.72
2018-09-24T03:51:31.992Z,12.78
2018-09-24T03:52:32.461Z,12.82
2018-09-24T03:53:32.934Z,12.87
2018-09-24T03:54:33.441Z,12.90
2018-09-24T03:55:33.872Z,12.95
2018-09-24T03:56:34.343Z,13.00
2018-09-24T03:57:34.811Z,13.05
2018-09-24T03:58:35.287Z,13.09
2018-09-24T03:59:35.752Z,13.13
2018-09-24T04:00:36.225Z,13.17
2018-09-24T04:01:36.706Z,13.21
2018-09-24T04:02:37.162Z,13.26
2018-09-24T04:03:37.634Z,13.29
2018-09-24T04:04:38.105Z,13.33
2018-09-24T04:05:38.574Z,13.37
2018-09-24T04:06:39.047Z,13.41
2018-09-24T04:07:39.524Z,13.44
2018-09-24T04:08:39.988Z,13.47
2018-09-24T04:09:40.487Z,13.49
2018-09-24T04:10:40.936Z,13.50
2018-09-24T04:11:41.402Z,13.51
2018-09-24T04:12:41.872Z,13.52
2018-09-24T04:13:42.347Z,13.54
2018-09-24T04:14:42.814Z,13.55
2018-09-24T04:15:43.287Z,13.57
2018-09-24T04:16:43.758Z,13.57
2018-09-24T04:17:44.228Z,13.59
2018-09-24T04:18:44.702Z,13.60
2018-09-24T04:19:45.173Z,13.63
2018-09-24T04:20:45.643Z,13.63
2018-09-24T04:21:46.115Z,13.64
2018-09-24T04:22:46.589Z,13.65
2018-09-24T04:23:47.058Z,13.65
2018-09-24T04:24:47.533Z,13.66
2018-09-24T04:25:48.002Z,13.67
2018-09-24T04:26:48.473Z,13.69
2018-09-24T04:27:48.945Z,13.71
2018-09-24T04:28:49.417Z,13.73
2018-09-24T04:29:49.890Z,13.75
2018-09-24T04:30:50.361Z,13.77
2018-09-24T04:31:50.834Z,13.79
2018-09-24T04:32:51.305Z,13.82
2018-09-24T04:33:51.778Z,13.85
2018-09-24T04:34:52.250Z,13.84
2018-09-24T04:35:52.722Z,13.86
2018-09-24T04:36:53.195Z,13.84
2018-09-24T04:37:53.665Z,13.83
2018-09-24T04:38:54.140Z,13.82
2018-09-24T04:39:54.610Z,13.83
2018-09-24T04:40:55.083Z,13.83
2018-09-24T04:41:55.558Z,13.84
2018-09-24T04:42:56.027Z,13.86
2018-09-24T04:43:56.500Z,13.86
2018-09-24T04:44:56.978Z,13.87
2018-09-24T04:45:57.445Z,13.89
2018-09-24T04:46:57.918Z,13.89
2018-09-24T04:47:58.391Z,13.91
2018-09-24T04:48:58.902Z,13.93
2018-09-24T04:49:59.334Z,13.93
2018-09-24T04:50:59.808Z,13.95
2018-09-24T04:52:00.282Z,13.96
2018-09-24T04:53:00.760Z,13.98
2018-09-24T04:54:01.231Z,13.96
2018-09-24T04:55:01.700Z,13.98
2018-09-24T04:56:02.172Z,13.97
2018-09-24T04:57:02.646Z,13.98
2018-09-24T04:58:03.116Z,13.96
2018-09-24T04:59:03.590Z,13.98
2018-09-24T05:00:04.163Z,13.94
2018-09-24T05:01:04.536Z,13.93
2018-09-24T05:02:05.009Z,13.91
2018-09-24T05:03:05.485Z,13.92
2018-09-24T05:04:05.955Z,13.91
2018-09-24T05:05:06.429Z,13.93
2018-09-24T05:06:06.899Z,13.91
2018-09-24T05:07:07.375Z,13.86
2018-09-24T05:08:07.847Z,13.79
2018-09-24T05:09:08.320Z,13.72
2018-09-24T05:10:08.802Z,13.61
2018-09-24T05:11:09.266Z,13.48
2018-09-24T05:12:09.746Z,13.36
2018-09-24T05:13:10.212Z,13.21
2018-09-24T05:14:10.684Z,13.08
2018-09-24T05:15:11.156Z,12.93
2018-09-24T05:16:11.668Z,12.76
2018-09-24T05:17:12.100Z,12.60
2018-09-24T05:18:12.572Z,12.45
2018-09-24T05:19:13.045Z,12.29
2018-09-24T05:20:13.595Z,12.13
2018-09-24T05:21:13.989Z,11.97
2018-09-24T05:22:14.458Z,11.80
2018-09-24T05:23:14.931Z,11.63
2018-09-24T05:24:15.405Z,11.48
2018-09-24T05:25:15.871Z,11.35
2018-09-24T05:26:16.341Z,11.26
2018-09-24T05:27:16.825Z,11.18
2018-09-24T05:28:17.283Z,11.12
2018-09-24T05:29:17.752Z,11.09
2018-09-24T05:30:18.222Z,11.07
2018-09-24T05:31:18.689Z,11.07
2018-09-24T05:32:19.215Z,11.10
2018-09-24T05:33:19.631Z,11.12
2018-09-24T05:34:20.149Z,11.17
2018-09-24T05:35:20.569Z,11.19
2018-09-24T05:36:21.240Z,11.23
2018-09-24T05:37:21.507Z,11.25
2018-09-24T05:38:21.979Z,11.30
2018-09-24T05:39:22.445Z,11.36
2018-09-24T05:40:22.918Z,11.41
2018-09-24T05:41:23.440Z,11.46
2018-09-24T05:42:23.856Z,11.54
2018-09-24T05:43:24.320Z,11.60
2018-09-24T05:44:24.790Z,11.65
2018-09-24T05:45:25.313Z,11.70
2018-09-24T05:46:25.728Z,11.77
2018-09-24T05:47:26.197Z,11.85
2018-09-24T05:48:26.668Z,11.91
2018-09-24T05:49:27.137Z,11.97
2018-09-24T05:50:27.606Z,12.03
2018-09-24T05:51:28.076Z,12.09
2018-09-24T05:52:28.545Z,12.14
2018-09-24T05:53:29.016Z,12.18
2018-09-24T05:54:29.482Z,12.22
2018-09-24T05:55:29.952Z,12.27
2018-09-24T05:56:30.423Z,12.33
2018-09-24T05:57:30.895Z,12.36
2018-09-24T05:58:31.363Z,12.41
2018-09-24T05:59:31.831Z,12.46
2018-09-24T06:00:32.302Z,12.50
2018-09-24T06:01:32.776Z,12.55
2018-09-24T06:02:33.242Z,12.61
2018-09-24T06:03:33.715Z,12.61
2018-09-24T06:04:34.220Z,12.64
2018-09-24T06:05:34.655Z,12.70
2018-09-24T06:06:35.124Z,12.73
2018-09-24T06:07:35.594Z,12.78
2018-09-24T06:08:36.065Z,12.81
2018-09-24T06:09:36.536Z,12.84
2018-09-24T06:10:37.006Z,12.87
2018-09-24T06:11:37.477Z,12.90
2018-09-24T06:12:37.949Z,12.95
2018-09-24T06:13:38.444Z,12.95
2018-09-24T06:14:38.895Z,13.00
2018-09-24T06:15:39.361Z,12.99
2018-09-24T06:16:39.837Z,13.04
2018-09-24T06:17:40.303Z,13.07
2018-09-24T06:18:40.772Z,13.11
2018-09-24T06:19:41.245Z,13.13
2018-09-24T06:20:41.718Z,13.17
2018-09-24T06:21:42.189Z,13.19
2018-09-24T06:22:42.660Z,13.22
2018-09-24T06:23:43.132Z,13.24
2018-09-24T06:24:43.606Z,13.26
2018-09-24T06:25:44.078Z,13.29
2018-09-24T06:26:44.543Z,13.30
2018-09-24T06:27:45.019Z,13.31
2018-09-24T06:28:45.487Z,13.35
2018-09-24T06:29:45.962Z,13.38
2018-09-24T06:30:46.431Z,13.38
2018-09-24T06:31:46.903Z,13.42
2018-09-24T06:32:47.374Z,13.42
2018-09-24T06:33:47.846Z,13.44
2018-09-24T06:34:48.318Z,13.47
2018-09-24T06:35:48.789Z,13.49
2018-09-24T06:36:49.265Z,13.50
2018-09-24T06:37:49.735Z,13.51
2018-09-24T06:38:50.207Z,13.54
2018-09-24T06:39:50.678Z,13.58
2018-09-24T06:40:51.151Z,13.57
2018-09-24T06:41:51.624Z,13.59
2018-09-24T06:42:52.095Z,13.61
2018-09-24T06:43:52.567Z,13.63
2018-09-24T06:44:53.039Z,13.64
2018-09-24T06:45:53.511Z,13.65
2018-09-24T06:46:53.983Z,13.68
2018-09-24T06:47:54.457Z,13.72
2018-09-24T06:48:54.929Z,13.74
2018-09-24T06:49:55.405Z,13.75
2018-09-24T06:50:55.872Z,13.77
2018-09-24T06:51:56.345Z,13.77
2018-09-24T06:52:56.823Z,13.79
2018-09-24T06:53:57.291Z,13.83
2018-09-24T06:54:57.764Z,13.84
2018-09-24T06:55:58.236Z,13.84
2018-09-24T06:56:58.709Z,13.87
2018-09-24T06:57:59.181Z,13.89
2018-09-24T06:58:59.654Z,13.93
2018-09-24T07:00:00.127Z,13.90
2018-09-24T07:01:00.600Z,13.93
2018-09-24T07:02:01.072Z,13.92
2018-09-24T07:03:01.545Z,13.92
2018-09-24T07:04:02.017Z,13.95
2018-09-24T07:05:02.491Z,13.94
2018-09-24T07:06:02.968Z,13.97
2018-09-24T07:07:03.436Z,13.98
2018-09-24T07:08:03.909Z,13.98
2018-09-24T07:09:04.382Z,14.01
2018-09-24T07:10:04.855Z,14.01
2018-09-24T07:11:05.328Z,14.05
2018-09-24T07:12:05.802Z,14.06
2018-09-24T07:13:06.276Z,14.08
2018-09-24T07:14:06.747Z,14.03
2018-09-24T07:15:07.223Z,13.95
2018-09-24T07:16:07.693Z,13.89
2018-09-24T07:17:08.169Z,13.80
2018-09-24T07:18:08.640Z,13.69
2018-09-24T07:19:09.114Z,13.56
2018-09-24T07:20:09.585Z,13.45
2018-09-24T07:21:10.058Z,13.34
2018-09-24T07:22:10.530Z,13.22
2018-09-24T07:23:11.003Z,13.08
2018-09-24T07:24:11.478Z,12.93
2018-09-24T07:25:11.947Z,12.77
2018-09-24T07:26:12.421Z,12.61
2018-09-24T07:27:12.891Z,12.45
2018-09-24T07:28:13.379Z,12.28
2018-09-24T07:29:13.835Z,12.14
2018-09-24T07:30:14.315Z,11.96
2018-09-24T07:31:14.780Z,11.80
2018-09-24T07:32:15.249Z,11.67
2018-09-24T07:33:15.722Z,11.55
2018-09-24T07:34:16.189Z,11.45
2018-09-24T07:35:16.660Z,11.36
2018-09-24T07:36:17.129Z,11.31
2018-09-24T07:37:17.600Z,11.26
2018-09-24T07:38:18.070Z,11.25
2018-09-24T07:39:18.540Z,11.25
2018-09-24T07:40:19.009Z,11.25
2018-09-24T07:41:19.480Z,11.28
2018-09-24T07:42:19.947Z,11.34
2018-09-24T07:43:20.424Z,11.39
2018-09-24T07:44:20.885Z,11.44
2018-09-24T07:45:21.356Z,11.48
2018-09-24T07:46:21.824Z,11.55
2018-09-24T07:47:22.292Z,11.62
2018-09-24T07:48:22.763Z,11.67
2018-09-24T07:49:23.232Z,11.75
2018-09-24T07:50:23.700Z,11.82
2018-09-24T07:51:24.169Z,11.92
2018-09-24T07:52:24.638Z,11.99
2018-09-24T07:53:25.108Z,12.05
2018-09-24T07:54:25.579Z,12.13
2018-09-24T07:55:26.082Z,12.19
2018-09-24T07:56:26.519Z,12.26
2018-09-24T07:57:26.988Z,12.32
2018-09-24T07:58:27.458Z,12.40
2018-09-24T07:59:27.928Z,12.45
2018-09-24T08:00:28.399Z,12.52
2018-09-24T08:01:28.865Z,12.60
2018-09-24T08:02:29.337Z,12.68
2018-09-24T08:03:29.808Z,12.76
2018-09-24T08:04:30.279Z,12.84
2018-09-24T08:05:30.746Z,12.92
2018-09-24T08:06:31.215Z,13.02
2018-09-24T08:07:31.737Z,13.06
2018-09-24T08:08:32.198Z,13.13
2018-09-24T08:09:32.627Z,13.20
2018-09-24T08:10:33.098Z,13.26
2018-09-24T08:11:33.567Z,13.33
2018-09-24T08:12:34.037Z,13.38
2018-09-24T08:13:34.508Z,13.41
2018-09-24T08:14:34.980Z,13.47
2018-09-24T08:15:35.453Z,13.50
2018-09-24T08:16:35.923Z,13.54
2018-09-24T08:17:36.398Z,13.55
2018-09-24T08:18:36.865Z,13.58
2018-09-24T08:19:37.335Z,13.64
2018-09-24T08:20:37.807Z,13.67
2018-09-24T08:21:38.284Z,13.70
2018-09-24T08:22:38.750Z,13.75
2018-09-24T08:23:39.226Z,13.79
2018-09-24T08:24:39.692Z,13.81
2018-09-24T08:25:40.167Z,13.86
2018-09-24T08:26:40.637Z,13.87
2018-09-24T08:27:41.108Z,13.91
2018-09-24T08:28:41.627Z,13.94
2018-09-24T08:29:42.053Z,13.96
2018-09-24T08:30:42.525Z,14.02
2018-09-24T08:31:42.995Z,14.06
2018-09-24T08:32:43.470Z,14.10
2018-09-24T08:33:43.941Z,14.13
2018-09-24T08:34:44.414Z,14.15
2018-09-24T08:35:44.885Z,14.18
2018-09-24T08:36:45.360Z,14.21
2018-09-24T08:37:45.834Z,14.24
2018-09-24T08:38:46.304Z,14.28
2018-09-24T08:39:46.779Z,14.32
2018-09-24T08:40:47.249Z,14.36
2018-09-24T08:41:47.725Z,14.42
2018-09-24T08:42:48.244Z,14.45
2018-09-24T08:43:48.666Z,14.49
2018-09-24T08:44:49.139Z,14.54
2018-09-24T08:45:49.613Z,14.57
2018-09-24T08:46:50.089Z,14.63
2018-09-24T08:47:50.558Z,14.65
2018-09-24T08:48:51.032Z,14.69
2018-09-24T08:49:51.553Z,14.73
2018-09-24T08:50:51.979Z,14.76
2018-09-24T08:51:52.451Z,14.77
2018-09-24T08:52:52.924Z,14.84
2018-09-24T08:53:53.400Z,14.84
2018-09-24T08:54:53.871Z,14.78
2018-09-24T08:55:54.345Z,14.73
2018-09-24T08:56:54.844Z,14.67
2018-09-24T08:57:55.292Z,14.58
2018-09-24T08:58:55.766Z,14.49
2018-09-24T08:59:56.241Z,14.39
2018-09-24T09:00:56.711Z,14.28
2018-09-24T09:01:57.183Z,14.16
2018-09-24T09:02:57.662Z,14.03
2018-09-24T09:03:58.130Z,13.90
2018-09-24T09:04:58.604Z,13.77
2018-09-24T09:05:59.075Z,13.63
2018-09-24T09:06:59.548Z,13.48
2018-09-24T09:08:00.020Z,13.32
2018-09-24T09:09:00.493Z,13.15
2018-09-24T09:10:00.965Z,12.98
2018-09-24T09:11:01.437Z,12.83
2018-09-24T09:12:01.909Z,12.67
2018-09-24T09:13:02.378Z,12.52
2018-09-24T09:14:02.850Z,12.37
2018-09-24T09:15:03.324Z,12.27
2018-09-24T09:16:03.793Z,12.18
2018-09-24T09:17:04.262Z,12.12
2018-09-24T09:18:04.733Z,12.08
2018-09-24T09:19:05.203Z,12.04
2018-09-24T09:20:05.671Z,12.02
2018-09-24T09:21:06.143Z,12.04
2018-09-24T09:22:06.614Z,12.06
2018-09-24T09:23:07.082Z,12.09
2018-09-24T09:24:07.569Z,12.12
2018-09-24T09:25:08.025Z,12.20
2018-09-24T09:26:08.491Z,12.26
2018-09-24T09:27:08.960Z,12.35
2018-09-24T09:28:09.430Z,12.43
2018-09-24T09:29:09.899Z,12.49
2018-09-24T09:30:10.369Z,12.57
2018-09-24T09:31:10.840Z,12.65
2018-09-24T09:32:11.307Z,12.75
2018-09-24T09:33:11.777Z,12.83
2018-09-24T09:34:12.248Z,12.91
2018-09-24T09:35:12.791Z,13.02
2018-09-24T09:36:13.186Z,13.09
2018-09-24T09:37:13.657Z,13.16
2018-09-24T09:38:14.126Z,13.24
2018-09-24T09:39:14.597Z,13.32
2018-09-24T09:40:15.067Z,13.40
2018-09-24T09:41:15.537Z,13.48
2018-09-24T09:42:16.005Z,13.55
2018-09-24T09:43:16.478Z,13.64
2018-09-24T09:44:16.946Z,13.70
2018-09-24T09:45:17.418Z,13.79
2018-09-24T09:46:17.891Z,13.86
2018-09-24T09:47:18.359Z,13.93
2018-09-24T09:48:18.830Z,14.01
2018-09-24T09:49:19.300Z,14.08
2018-09-24T09:50:19.773Z,14.16
2018-09-24T09:51:20.246Z,14.22
2018-09-24T09:52:20.716Z,14.28
2018-09-24T09:53:21.186Z,14.34
2018-09-24T09:54:21.658Z,14.43
2018-09-24T09:55:22.131Z,14.49
2018-09-24T09:56:22.601Z,14.55
2018-09-24T09:57:23.073Z,14.58
2018-09-24T09:58:23.545Z,14.63
2018-09-24T09:59:24.019Z,14.69
2018-09-24T10:00:24.490Z,14.76
2018-09-24T10:01:24.962Z,14.83
2018-09-24T10:02:25.436Z,14.87
2018-09-24T10:03:25.907Z,14.93
2018-09-24T10:04:26.379Z,14.96
2018-09-24T10:05:26.851Z,15.00
2018-09-24T10:06:27.326Z,15.05
2018-09-24T10:07:27.799Z,15.11
2018-09-24T10:08:28.271Z,15.14
2018-09-24T10:09:28.745Z,15.19
2018-09-24T10:10:29.218Z,15.24
2018-09-24T10:11:29.692Z,15.30
2018-09-24T10:12:30.167Z,15.35
2018-09-24T10:13:30.644Z,15.42
2018-09-24T10:14:31.112Z,15.46
2018-09-24T10:15:31.587Z,15.47
2018-09-24T10:16:32.060Z,15.44
2018-09-24T10:17:32.535Z,15.39
2018-09-24T10:18:33.346Z,15.34
2018-09-24T10:19:33.483Z,15.27
2018-09-24T10:20:33.958Z,15.20
2018-09-24T10:21:34.427Z,15.13
2018-09-24T10:22:34.958Z,15.05
2018-09-24T10:23:35.377Z,14.95
2018-09-24T10:24:35.847Z,14.85
2018-09-24T10:25:36.321Z,14.74
2018-09-24T10:26:36.795Z,14.62
2018-09-24T10:27:37.268Z,14.50
2018-09-24T10:28:37.740Z,14.38
2018-09-24T10:29:38.214Z,14.25
2018-09-24T10:30:38.686Z,14.12
2018-09-24T10:31:39.159Z,14.01
2018-09-24T10:32:39.702Z,13.90
2018-09-24T10:33:40.152Z,13.81
2018-09-24T10:34:40.574Z,13.71
2018-09-24T10:35:41.049Z,13.60
2018-09-24T10:36:41.518Z,13.50
2018-09-24T10:37:41.991Z,13.41
2018-09-24T10:38:42.459Z,13.34
2018-09-24T10:39:42.988Z,13.27
2018-09-24T10:40:43.402Z,13.22
2018-09-24T10:41:43.874Z,13.19
2018-09-24T10:42:44.346Z,13.17
2018-09-24T10:43:44.815Z,13.16
2018-09-24T10:44:45.283Z,13.15
2018-09-24T10:45:45.755Z,13.19
2018-09-24T10:46:46.226Z,13.21
2018-09-24T10:47:46.695Z,13.26
2018-09-24T10:48:47.165Z,13.32
2018-09-24T10:49:47.634Z,13.41
2018-09-24T10:50:48.107Z,13.49
2018-09-24T10:51:48.576Z,13.60
2018-09-24T10:52:49.097Z,13.71
2018-09-24T10:53:49.517Z,13.82
2018-09-24T10:54:49.987Z,13.93
2018-09-24T10:55:50.497Z,14.02
2018-09-24T10:56:50.926Z,14.13
2018-09-24T10:57:51.397Z,14.23
2018-09-24T10:58:51.868Z,14.34
2018-09-24T10:59:52.337Z,14.47
2018-09-24T11:00:52.808Z,14.60
2018-09-24T11:01:53.279Z,14.72
2018-09-24T11:02:53.750Z,14.82
2018-09-24T11:03:54.221Z,14.95
2018-09-24T11:04:54.763Z,15.06
2018-09-24T11:05:55.164Z,15.17
2018-09-24T11:06:55.636Z,15.27
2018-09-24T11:07:56.114Z,15.38
2018-09-24T11:08:56.576Z,15.47
2018-09-24T11:09:57.048Z,15.56
2018-09-24T11:10:57.521Z,15.65
2018-09-24T11:11:57.994Z,15.73
2018-09-24T11:12:58.468Z,15.80
2018-09-24T11:13:58.939Z,15.86
2018-09-24T11:14:59.411Z,15.94
2018-09-24T11:15:59.943Z,15.99
2018-09-24T11:17:00.448Z,16.06
2018-09-24T11:18:00.871Z,16.12
2018-09-24T11:19:01.305Z,16.19
2018-09-24T11:20:01.779Z,16.26
2018-09-24T11:21:02.248Z,16.33
2018-09-24T11:22:02.783Z,16.40
2018-09-24T11:23:03.199Z,16.47
2018-09-24T11:24:03.673Z,16.55
2018-09-24T11:25:04.145Z,16.63
2018-09-24T11:26:04.618Z,16.65
2018-09-24T11:27:05.093Z,16.66
2018-09-24T11:28:05.566Z,16.65
2018-09-24T11:29:06.041Z,16.62
2018-09-24T11:30:06.515Z,16.55
2018-09-24T11:31:06.991Z,16.49
2018-09-24T11:32:07.463Z,16.42
2018-09-24T11:33:07.937Z,16.33
2018-09-24T11:34:08.410Z,16.25
2018-09-24T11:35:08.887Z,16.15
2018-09-24T11:36:09.363Z,16.04
2018-09-24T11:37:09.833Z,15.93
2018-09-24T11:38:10.306Z,15.80
2018-09-24T11:39:10.779Z,15.67
2018-09-24T11:40:11.254Z,15.53
2018-09-24T11:41:11.725Z,15.41
2018-09-24T11:42:12.199Z,15.29
2018-09-24T11:43:12.672Z,15.18
2018-09-24T11:44:13.145Z,15.06
2018-09-24T11:45:13.618Z,14.94
2018-09-24T11:46:14.090Z,14.82
2018-09-24T11:47:14.585Z,14.70
2018-09-24T11:48:15.072Z,14.57
2018-09-24T11:49:15.509Z,14.45
2018-09-24T11:50:15.979Z,14.34
2018-09-24T11:51:16.449Z,14.24
2018-09-24T11:52:16.922Z,14.15
2018-09-24T11:53:17.393Z,14.08
2018-09-24T11:54:17.867Z,14.02
2018-09-24T11:55:18.336Z,14.00
2018-09-24T11:56:18.852Z,14.00
2018-09-24T11:57:19.276Z,14.03
2018-09-24T11:58:19.747Z,14.08
2018-09-24T11:59:20.218Z,14.14
2018-09-24T12:00:20.689Z,14.21
2018-09-24T12:01:21.160Z,14.30
2018-09-24T12:02:21.647Z,14.39
2018-09-24T12:03:22.099Z,14.49
2018-09-24T12:04:22.572Z,14.59
2018-09-24T12:05:23.040Z,14.71
2018-09-24T12:06:23.512Z,14.83
2018-09-24T12:07:23.982Z,14.95
2018-09-24T12:08:24.454Z,15.09
2018-09-24T12:09:24.922Z,15.22
2018-09-24T12:10:25.394Z,15.34
2018-09-24T12:11:25.864Z,15.49
2018-09-24T12:12:26.337Z,15.61
2018-09-24T12:13:26.807Z,15.76
2018-09-24T12:14:27.277Z,15.88
2018-09-24T12:15:27.751Z,16.01
2018-09-24T12:16:28.224Z,16.14
2018-09-24T12:17:28.694Z,16.25
2018-09-24T12:18:29.168Z,16.37
2018-09-24T12:19:29.638Z,16.47
2018-09-24T12:20:30.109Z,16.58
2018-09-24T12:21:30.579Z,16.70
2018-09-24T12:22:31.054Z,16.81
2018-09-24T12:23:31.526Z,16.92
2018-09-24T12:24:32.001Z,17.03
2018-09-24T12:25:32.471Z,17.16
2018-09-24T12:26:32.945Z,17.26
2018-09-24T12:27:33.419Z,17.37
2018-09-24T12:28:33.893Z,17.46
2018-09-24T12:29:34.366Z,17.56
2018-09-24T12:30:34.841Z,17.64
2018-09-24T12:31:35.317Z,17.71
2018-09-24T12:32:35.792Z,17.75
2018-09-24T12:33:36.264Z,17.80
2018-09-24T12:34:36.738Z,17.83
2018-09-24T12:35:37.212Z,17.82
2018-09-24T12:36:37.687Z,17.77
2018-09-24T12:37:38.160Z,17.70
2018-09-24T12:38:38.636Z,17.63
2018-09-24T12:39:39.110Z,17.53
2018-09-24T12:40:39.588Z,17.45
2018-09-24T12:41:40.063Z,17.37
2018-09-24T12:42:40.532Z,17.28
2018-09-24T12:43:41.017Z,17.18
2018-09-24T12:44:41.483Z,17.09
2018-09-24T12:45:41.956Z,16.99
2018-09-24T12:46:42.430Z,16.88
2018-09-24T12:47:42.905Z,16.77
2018-09-24T12:48:43.379Z,16.67
2018-09-24T12:49:43.852Z,16.57
2018-09-24T12:50:44.328Z,16.47
2018-09-24T12:51:44.800Z,16.37
2018-09-24T12:52:45.272Z,16.28
2018-09-24T12:53:45.751Z,16.19
2018-09-24T12:54:46.219Z,16.11
2018-09-24T12:55:46.692Z,16.03
2018-09-24T12:56:47.168Z,15.95
2018-09-24T12:57:47.638Z,15.86
2018-09-24T12:58:48.112Z,15.79